Aeroboteco Virtual Airlines! Uma nuvem a frente.



 INFORMAÇÕES METEOROLÓGICAS
METAR FOR LECO
ADDS - METARS form results

(0108 UTC 20 March 2019)
Data provider http://aviationweather.gov/metar/data/
 
METAR text: LECO 200100Z AUTO 05006KT 020V080 9999 BKN031/// BKN037/// 10/07 Q1031
Conditions at: LECO (LA CORUNA/ALVEDR, ES) observed 0100 UTC 20 March 2019
Temperature: 10.0°C (50°F)
Dewpoint: 7.0°C (45°F) [RH = 82%]
Pressure (altimeter): 30.44 inches Hg (1031.0 mb)
Winds: from the NE (50 degrees) at 7 MPH (6 knots; 3.1 m/s)
Visibility: 6 or more miles (10+ km)
Ceiling: 3100 feet AGL
Clouds: broken clouds at 3100 feet AGL
broken clouds at 3700 feet AGL
Weather: no significant weather observed at this time

METAR text: LECO 200030Z AUTO 05003KT 010V090 9999 OVC032/// 10/07 Q1031
Conditions at: LECO (LA CORUNA/ALVEDR, ES) observed 0030 UTC 20 March 2019
Temperature: 10.0°C (50°F)
Dewpoint: 7.0°C (45°F) [RH = 82%]
Pressure (altimeter): 30.44 inches Hg (1031.0 mb)
Winds: from the NE (50 degrees) at 3 MPH (3 knots; 1.5 m/s)
Visibility: 6 or more miles (10+ km)
Ceiling: 3200 feet AGL
Clouds: overcast cloud deck at 3200 feet AGL
Weather: no significant weather observed at this time

Forecast for: LECO (LA CORUNA/ALVEDR, ES)
Text: TAF LECO 192000Z 1921/2021 04007KT 9999 SCT030 TX16/2015Z TN03/2007Z
Forecast period: 2100 UTC 19 March 2019 to 2100 UTC 20 March 2019
Forecast type: FROM: standard forecast or significant change
Winds: from the NE (40 degrees) at 8 MPH (7 knots; 3.6 m/s)
Visibility: 6 or more miles 10+ km)
Ceiling: at least 12,000 feet AGL
Clouds: scattered clouds at 3000 feet AGL
Weather: no significant weather forecast for this period
Text: PROB40
Forecast period: 0200 to 0700 UTC 20 March 2019
Forecast type: TEMPORARY: The following changes expected for less than half the time period
Visibility: 1.86 miles (2.99 km)
Ceiling: unknown
Clouds: missing
Weather: BR BCFG  (mist, patches of fog)

 MAPA DO AEROPORTO

 INFORMAÇÕES DA PISTA
Pista 03 Tamanho da pista 6358 ft Largura da pista 148 ft
Elevação da pista 327 ft Ranhura da pista 0 ft Proa da pista 31
Pista 21 Tamanho da pista 6358 ft Largura da pista 148 ft
Elevação da pista 286 ft Ranhura da pista 0 ft Proa da pista 211

 FREQUÊNCIAS DO AEROPORTO
Tipo APP Nome SANTIAGO A Frequência 120.2 MHZ
Tipo GND Nome GND Frequência 121.7 MHZ
Tipo TWR Nome A Coruña T Frequência 118.3 MHZ

 AUXÍLIOS DE NAVEGAÇÃO PRÓXIMOS AO AEROPORTO
Tipo NDB Nome La Coruna Frequência 401 KHZ
Tipo VOR-DME Nome La Coruna Frequência 115100 KHZ